Time;durP1;ratioP1;P1;durP2;ratioP2;P2;SDS_P1;SDS_P2;PMS_P1;PMS_P2;Temp;Humidity;BMP_temperature;BMP_pressure;BME280_temperature;BME280_humidity;BME280_pressure;Samples;Min_cycle;Max_cycle;Signal;HPM_P1;HPM_P2
2021/05/14 00:01:06;;;;;;;;;;;11.60;99.90;;;;;;4983163;28;20085;-63
2021/05/14 00:03:33;;;;;;;6.57;3.83;;;11.60;99.90;;;;;;4983464;28;20006;-63
2021/05/14 00:06:00;;;;;;;7.53;4.20;;;11.60;99.90;;;;;;4985142;28;20060;-64
2021/05/14 00:08:27;;;;;;;6.60;3.70;;;11.60;99.90;;;;;;4983232;28;20108;-64
2021/05/14 00:10:53;;;;;;;;;;;11.60;99.90;;;;;;4983566;28;20054;-63
2021/05/14 00:13:21;;;;;;;11.05;4.10;;;11.60;99.90;;;;;;4980885;28;19925;-63
2021/05/14 00:15:47;;;;;;;11.23;3.88;;;11.60;99.90;;;;;;4980594;28;20140;-63
2021/05/14 00:18:13;;;;;;;;;;;11.60;99.90;;;;;;4980785;28;20053;-64
2021/05/14 00:20:41;;;;;;;6.70;3.95;;;11.60;99.90;;;;;;4983323;28;20398;-63
2021/05/14 00:23:08;;;;;;;9.73;4.40;;;11.60;99.90;;;;;;4982041;28;20061;-64
2021/05/14 00:25:35;;;;;;;8.80;4.57;;;11.60;99.90;;;;;;4983972;28;20053;-63
2021/05/14 00:28:01;;;;;;;8.75;3.63;;;11.60;99.90;;;;;;4987929;28;20491;-63
2021/05/14 00:30:28;;;;;;;;;;;11.70;99.90;;;;;;4988771;28;20054;-63
2021/05/14 00:32:55;;;;;;;7.95;4.00;;;11.60;99.90;;;;;;4988536;28;19925;-63
2021/05/14 00:35:21;;;;;;;;;;;11.70;99.90;;;;;;4987515;28;20099;-63
2021/05/14 00:37:48;;;;;;;6.35;3.40;;;11.60;99.90;;;;;;4986112;28;20346;-63
2021/05/14 00:40:14;;;;;;;;;;;11.60;99.90;;;;;;4991423;28;20099;-63
2021/05/14 00:42:41;;;;;;;6.43;3.08;;;11.60;99.90;;;;;;4989890;28;19922;-63
2021/05/14 00:45:09;;;;;;;5.53;3.00;;;11.60;99.90;;;;;;4987843;28;20050;-63
2021/05/14 00:47:36;;;;;;;6.43;3.40;;;11.60;99.90;;;;;;4980827;28;20128;-63
2021/05/14 00:50:04;;;;;;;5.82;2.63;;;11.60;99.90;;;;;;4982455;28;20124;-63
2021/05/14 00:52:31;;;;;;;5.32;2.50;;;11.50;99.90;;;;;;4979700;28;20046;-63
2021/05/14 00:54:58;;;;;;;4.75;2.67;;;11.50;99.90;;;;;;4980077;28;20115;-63
2021/05/14 00:57:25;;;;;;;5.65;3.25;;;11.50;99.90;;;;;;4979532;28;20081;-63
2021/05/14 00:59:52;;;;;;;3.88;2.22;;;11.60;99.90;;;;;;4981174;28;20496;-63
2021/05/14 01:02:19;;;;;;;5.55;2.50;;;11.60;99.90;;;;;;4981908;28;20046;-63
2021/05/14 01:04:47;;;;;;;4.97;1.98;;;11.50;99.90;;;;;;4981268;28;20132;-63
2021/05/14 01:07:14;;;;;;;4.68;2.40;;;11.60;99.90;;;;;;4985125;28;20534;-63
2021/05/14 01:09:42;;;;;;;4.63;2.20;;;11.60;99.90;;;;;;4988886;28;20045;-63
2021/05/14 01:12:09;;;;;;;11.85;2.55;;;11.50;99.90;;;;;;4982193;28;20053;-63
2021/05/14 01:14:36;;;;;;;7.07;2.30;;;11.50;99.90;;;;;;4982859;28;20140;-63
2021/05/14 01:17:03;;;;;;;3.65;2.03;;;11.50;99.90;;;;;;4981626;28;20171;-63
2021/05/14 01:19:29;;;;;;;3.30;1.90;;;11.50;99.90;;;;;;4983912;28;20136;-63
2021/05/14 01:21:57;;;;;;;6.32;2.65;;;11.40;99.90;;;;;;4986763;28;20140;-63
2021/05/14 01:24:23;;;;;;;4.80;2.38;;;11.40;99.90;;;;;;4981469;28;20047;-63
2021/05/14 01:26:50;;;;;;;6.10;1.90;;;11.30;99.90;;;;;;4982768;28;20060;-63
2021/05/14 01:29:17;;;;;;;5.40;2.00;;;11.40;99.90;;;;;;4981288;28;20125;-63
2021/05/14 01:31:43;;;;;;;4.00;2.28;;;11.20;99.90;;;;;;4988824;28;20058;-63
2021/05/14 01:34:10;;;;;;;3.85;1.70;;;11.20;99.90;;;;;;4989120;28;20081;-63
2021/05/14 01:36:38;;;;;;;5.55;2.15;;;11.20;99.90;;;;;;4992188;28;20205;-63
2021/05/14 01:39:08;;;;;;;2.90;1.63;;;11.10;99.90;;;;;;4982768;28;20446;-63
2021/05/14 01:41:34;;;;;;;4.13;1.73;;;11.20;99.90;;;;;;4983143;28;20916;-63
2021/05/14 01:44:01;;;;;;;5.18;2.00;;;11.20;99.90;;;;;;4989838;28;20053;-63
2021/05/14 01:46:28;;;;;;;2.83;1.75;;;11.20;99.90;;;;;;4991726;28;20084;-63
2021/05/14 01:48:54;;;;;;;3.63;2.10;;;11.10;99.90;;;;;;4993002;28;20081;-63
2021/05/14 01:51:22;;;;;;;3.03;1.80;;;11.10;99.90;;;;;;4993820;28;20128;-63
2021/05/14 01:53:49;;;;;;;5.93;1.85;;;11.10;99.90;;;;;;4991800;28;20077;-63
2021/05/14 01:56:17;;;;;;;2.85;1.60;;;11.10;99.90;;;;;;4990005;28;20060;-63
2021/05/14 01:58:43;;;;;;;3.63;2.03;;;11.10;99.90;;;;;;4993849;28;20136;-63
2021/05/14 02:01:10;;;;;;;3.05;1.80;;;11.00;99.90;;;;;;4993190;28;20049;-63
2021/05/14 02:03:36;;;;;;;3.33;1.70;;;11.00;99.90;;;;;;4991714;28;20716;-63
2021/05/14 02:06:03;;;;;;;;;;;10.90;99.90;;;;;;4995370;28;20077;-63
2021/05/14 02:08:30;;;;;;;3.55;1.70;;;10.90;99.90;;;;;;4991652;28;20060;-63
2021/05/14 02:10:58;;;;;;;6.53;2.00;;;10.80;99.90;;;;;;4985757;28;20395;-63
2021/05/14 02:13:26;;;;;;;3.42;1.65;;;10.90;99.90;;;;;;4984732;28;20066;-63
2021/05/14 02:15:52;;;;;;;3.28;1.58;;;10.90;99.90;;;;;;4988849;28;20103;-63
2021/05/14 02:18:18;;;;;;;;;;;10.90;99.90;;;;;;4986621;28;21311;-63
2021/05/14 02:20:45;;;;;;;3.30;1.73;;;10.80;99.90;;;;;;4993492;28;21199;-63
2021/05/14 02:23:12;;;;;;;2.80;1.60;;;10.80;99.90;;;;;;4990273;28;20053;-63
2021/05/14 02:25:38;;;;;;;3.95;1.70;;;10.90;99.90;;;;;;4991524;28;20522;-63
2021/05/14 02:28:06;;;;;;;2.33;1.60;;;11.00;99.90;;;;;;4987490;28;20065;-63
2021/05/14 02:30:34;;;;;;;3.65;2.20;;;10.90;99.90;;;;;;4986890;28;20092;-63
2021/05/14 02:33:00;;;;;;;2.92;1.73;;;10.90;99.90;;;;;;4985040;28;20088;-63
2021/05/14 02:35:27;;;;;;;3.40;1.67;;;10.80;99.90;;;;;;4986828;28;20133;-63
2021/05/14 02:37:54;;;;;;;4.22;1.58;;;10.80;99.90;;;;;;4983210;28;20430;-63
2021/05/14 02:40:21;;;;;;;3.40;1.60;;;10.80;99.90;;;;;;4984647;28;20437;-63
2021/05/14 02:42:47;;;;;;;3.38;1.50;;;10.80;99.90;;;;;;4986261;28;20388;-63
2021/05/14 02:45:14;;;;;;;3.67;1.80;;;10.80;99.90;;;;;;4988382;28;20049;-63
2021/05/14 02:47:42;;;;;;;5.07;1.98;;;10.80;99.90;;;;;;4981690;28;20053;-63
2021/05/14 02:50:10;;;;;;;6.35;2.33;;;10.70;99.90;;;;;;4984940;28;20088;-63
2021/05/14 02:52:36;;;;;;;6.20;1.45;;;10.80;99.90;;;;;;4983468;28;20077;-63
2021/05/14 02:55:03;;;;;;;;;;;10.80;99.90;;;;;;4988071;28;20081;-63
2021/05/14 02:57:29;;;;;;;3.13;1.53;;;10.80;99.90;;;;;;4986602;28;20328;-63
2021/05/14 02:59:55;;;;;;;;;;;10.80;99.90;;;;;;4984734;28;20748;-63
2021/05/14 03:02:22;;;;;;;2.15;1.30;;;10.80;99.90;;;;;;4987197;28;19960;-63
2021/05/14 03:04:49;;;;;;;3.58;1.90;;;10.80;99.90;;;;;;4985363;28;20533;-63
2021/05/14 03:07:16;;;;;;;4.20;1.80;;;10.90;99.90;;;;;;4988752;28;20479;-63
2021/05/14 03:09:42;;;;;;;;;;;10.80;99.90;;;;;;4991413;28;20141;-63
2021/05/14 03:12:09;;;;;;;3.30;1.50;;;10.70;99.90;;;;;;4989763;28;20002;-63
2021/05/14 03:14:35;;;;;;;3.35;1.60;;;10.80;99.90;;;;;;4983832;28;20061;-63
2021/05/14 03:17:02;;;;;;;;;;;10.70;99.90;;;;;;4981551;28;20132;-63
2021/05/14 03:19:29;;;;;;;3.03;1.67;;;10.80;99.90;;;;;;4983698;28;19969;-63
2021/05/14 03:21:56;;;;;;;2.60;1.55;;;10.80;99.90;;;;;;4982548;28;20053;-63
2021/05/14 03:24:24;;;;;;;16.38;3.67;;;10.70;99.90;;;;;;4984586;28;20228;-63
2021/05/14 03:26:53;;;;;;;5.47;1.70;;;10.80;99.90;;;;;;4989877;28;20046;-63
2021/05/14 03:29:19;;;;;;;5.85;1.75;;;10.70;99.90;;;;;;4987230;28;20150;-63
2021/05/14 03:31:46;;;;;;;4.32;1.30;;;10.60;99.90;;;;;;4991944;28;20049;-63
2021/05/14 03:34:12;;;;;;;2.95;1.60;;;10.60;99.90;;;;;;4989465;28;21188;-63
2021/05/14 03:36:39;;;;;;;3.00;1.58;;;10.60;99.90;;;;;;4986090;28;20077;-63
2021/05/14 03:39:08;;;;;;;7.35;1.83;;;10.60;99.90;;;;;;4988028;28;20477;-63
2021/05/14 03:41:46;;;;;;;2.88;1.50;;;10.60;99.90;;;;;;4985736;28;20143;-63
2021/05/14 03:44:13;;;;;;;5.15;1.65;;;10.50;99.90;;;;;;4991440;28;20054;-63
2021/05/14 03:46:40;;;;;;;3.35;1.42;;;10.50;99.90;;;;;;4991444;28;20132;-63
2021/05/14 03:49:06;;;;;;;5.63;1.48;;;10.50;99.90;;;;;;4989428;28;20085;-63
2021/05/14 03:51:35;;;;;;;4.72;1.52;;;10.60;99.90;;;;;;4986825;28;20100;-63
2021/05/14 03:54:03;;;;;;;3.63;1.45;;;10.60;99.90;;;;;;4984994;28;20046;-63
2021/05/14 03:56:31;;;;;;;1.92;1.20;;;10.60;99.90;;;;;;4986557;28;20480;-63
2021/05/14 03:58:58;;;;;;;2.75;1.45;;;10.60;99.90;;;;;;4982671;28;20130;-63
2021/05/14 04:01:25;;;;;;;3.50;1.33;;;10.60;99.90;;;;;;4984282;28;20235;-63
2021/05/14 04:03:51;;;;;;;8.35;1.60;;;10.60;99.90;;;;;;4987224;28;20096;-64
2021/05/14 04:06:18;;;;;;;3.95;1.45;;;10.60;99.90;;;;;;4984099;28;20046;-64
2021/05/14 04:08:48;;;;;;;2.67;1.40;;;10.70;99.90;;;;;;4983050;28;20058;-63
2021/05/14 04:16:44;;;;;;;2.63;1.60;;;10.80;99.90;;;;;;4982719;28;20075;-63
2021/05/14 04:19:10;;;;;;;;;;;10.70;99.90;;;;;;4980885;28;20250;-64
2021/05/14 04:21:37;;;;;;;1.85;1.10;;;10.80;99.90;;;;;;4985365;28;19940;-63
2021/05/14 04:24:05;;;;;;;4.50;1.50;;;10.90;99.90;;;;;;4983781;28;20041;-63
2021/05/14 04:26:32;;;;;;;4.75;1.42;;;10.90;99.90;;;;;;4984091;28;20123;-63
2021/05/14 04:28:59;;;;;;;2.20;1.27;;;10.90;99.90;;;;;;4982460;28;20050;-63
2021/05/14 04:31:27;;;;;;;4.35;1.40;;;10.90;99.90;;;;;;4984087;28;20533;-63
2021/05/14 04:33:53;;;;;;;3.92;1.48;;;11.00;99.90;;;;;;4982808;28;20088;-63
2021/05/14 04:36:20;;;;;;;2.95;1.05;;;11.00;99.90;;;;;;4981777;28;20085;-62
2021/05/14 04:38:46;;;;;;;;;;;10.90;99.90;;;;;;4981072;28;20050;-63
2021/05/14 04:41:12;;;;;;;2.85;1.30;;;11.00;99.90;;;;;;4981939;28;20015;-63
2021/05/14 04:43:39;;;;;;;2.85;1.10;;;11.00;99.90;;;;;;4982833;28;20800;-63
2021/05/14 04:46:06;;;;;;;;;;;11.00;99.90;;;;;;4982867;28;20092;-63
2021/05/14 04:48:32;;;;;;;3.83;1.20;;;11.10;99.90;;;;;;4981679;28;20024;-63
2021/05/14 04:50:59;;;;;;;2.33;1.15;;;11.10;99.90;;;;;;4981390;28;20103;-63
2021/05/14 04:53:29;;;;;;;2.13;1.10;;;11.20;99.90;;;;;;4983410;28;20112;-63
2021/05/14 04:55:55;;;;;;;1.83;1.10;;;11.20;99.90;;;;;;4981635;28;20116;-63
2021/05/14 04:58:22;;;;;;;2.17;1.17;;;11.20;99.90;;;;;;4980902;28;20045;-63
2021/05/14 05:00:48;;;;;;;;;;;11.30;99.90;;;;;;4981729;28;20529;-63
2021/05/14 05:03:16;;;;;;;3.40;1.50;;;11.30;99.90;;;;;;4981777;28;19981;-63
2021/05/14 05:05:42;;;;;;;2.95;1.00;;;11.30;99.90;;;;;;4981161;28;20049;-63
2021/05/14 05:08:09;;;;;;;3.15;1.10;;;11.40;99.90;;;;;;4983444;28;20499;-63
2021/05/14 05:10:35;;;;;;;;;;;11.50;99.90;;;;;;4984048;28;20561;-63
2021/05/14 05:13:20;;;;;;;2.72;1.30;;;11.50;99.90;;;;;;5001012;28;19925;-63
2021/05/14 05:16:01;;;;;;;3.35;1.08;;;11.50;99.90;;;;;;4981438;28;20418;-63
2021/05/14 05:18:29;;;;;;;3.08;0.95;;;11.50;99.90;;;;;;4997429;28;20136;-63
2021/05/14 05:20:56;;;;;;;2.30;1.30;;;11.50;99.90;;;;;;4991637;28;20097;-63
2021/05/14 05:23:22;;;;;;;2.05;1.10;;;11.50;99.90;;;;;;4992414;28;20089;-64
2021/05/14 05:25:49;;;;;;;3.55;1.00;;;11.50;99.90;;;;;;4995040;28;20731;-64
2021/05/14 05:28:21;;;;;;;4.40;1.20;;;11.50;99.90;;;;;;4991577;28;20210;-64
2021/05/14 05:30:47;;;;;;;2.75;1.20;;;11.60;99.90;;;;;;4995322;28;20132;-68
2021/05/14 05:33:13;;;;;;;;;;;11.60;99.90;;;;;;4992423;28;20053;-65
2021/05/14 05:35:41;;;;;;;2.75;1.00;;;11.70;99.90;;;;;;4991555;28;19964;-64
2021/05/14 05:38:14;;;;;;;1.40;0.90;;;11.70;99.90;;;;;;4989014;28;20088;-64
2021/05/14 05:40:41;;;;;;;3.63;1.20;;;11.70;99.90;;;;;;4992018;28;20041;-63
2021/05/14 05:43:07;;;;;;;;;;;11.70;99.90;;;;;;4986778;28;20518;-64
2021/05/14 05:45:34;;;;;;;2.60;1.05;;;11.60;99.90;;;;;;4977132;28;19971;-64
2021/05/14 05:48:00;;;;;;;;;;;11.70;99.90;;;;;;4982998;28;20442;-64
2021/05/14 05:50:26;;;;;;;4.90;1.17;;;11.70;99.90;;;;;;4976648;28;20051;-66
2021/05/14 05:52:55;;;;;;;3.80;1.00;;;11.70;99.90;;;;;;4988247;28;20050;-67
2021/05/14 05:55:21;;;;;;;2.60;1.00;;;11.80;99.90;;;;;;4990104;28;20072;-65
2021/05/14 05:57:48;;;;;;;1.55;0.90;;;11.80;99.90;;;;;;4990796;28;20138;-66
2021/05/14 06:00:15;;;;;;;4.35;1.10;;;11.70;99.90;;;;;;4990409;28;20050;-67
2021/05/14 06:02:42;;;;;;;1.25;0.73;;;11.80;99.90;;;;;;4985687;28;20805;-66
2021/05/14 06:05:09;;;;;;;2.88;0.95;;;12.00;99.90;;;;;;4989654;28;20500;-65
2021/05/14 06:07:36;;;;;;;4.50;1.05;;;11.90;99.90;;;;;;4987660;28;20049;-70
2021/05/14 06:10:08;;;;;;;2.85;1.02;;;12.00;99.90;;;;;;4991290;28;20049;-67
2021/05/14 06:12:46;;;;;;;1.45;0.60;;;12.10;99.90;;;;;;4999979;28;20069;-64
2021/05/14 06:15:25;;;;;;;3.50;1.02;;;12.10;99.90;;;;;;5008920;28;20053;-64
2021/05/14 06:17:52;;;;;;;3.05;1.02;;;12.10;99.90;;;;;;4997057;28;20057;-64
2021/05/14 06:20:23;;;;;;;;;;;12.20;99.90;;;;;;4991737;28;20487;-64
2021/05/14 06:22:50;;;;;;;3.05;1.10;;;12.30;99.90;;;;;;4988742;28;19925;-64
2021/05/14 06:25:18;;;;;;;2.30;0.90;;;12.20;99.90;;;;;;4992699;28;20046;-64
2021/05/14 06:27:45;;;;;;;2.15;0.95;;;12.40;99.90;;;;;;4989800;28;20391;-65
2021/05/14 06:30:11;;;;;;;;;;;12.30;99.90;;;;;;4992272;28;20814;-64
2021/05/14 06:32:38;;;;;;;2.57;1.00;;;12.30;99.90;;;;;;4994719;28;19921;-64
2021/05/14 06:35:06;;;;;;;4.95;1.00;;;12.30;99.90;;;;;;4996098;28;20107;-64
2021/05/14 06:37:36;;;;;;;3.15;1.17;;;12.40;99.90;;;;;;4992818;28;20129;-64
2021/05/14 06:40:04;;;;;;;3.67;1.00;;;12.60;99.90;;;;;;4993708;28;20056;-64
2021/05/14 06:42:31;;;;;;;3.47;1.10;;;12.60;99.90;;;;;;4994204;28;20046;-64
2021/05/14 06:44:58;;;;;;;1.60;1.08;;;12.50;99.90;;;;;;4994934;28;20100;-64
2021/05/14 06:47:25;;;;;;;1.67;0.85;;;12.50;99.90;;;;;;4992284;28;20517;-64
2021/05/14 06:49:51;;;;;;;2.20;1.05;;;12.70;99.90;;;;;;4996197;28;20064;-64
2021/05/14 06:52:18;;;;;;;;;;;12.80;99.90;;;;;;4995546;28;20081;-65
2021/05/14 06:54:44;;;;;;;3.30;1.10;;;12.70;99.90;;;;;;4994169;28;20109;-65
2021/05/14 06:57:10;;;;;;;;;;;12.70;99.90;;;;;;4995384;28;20077;-65
2021/05/14 06:59:38;;;;;;;4.43;1.20;;;12.70;99.90;;;;;;4995980;28;20625;-65
2021/05/14 07:02:04;;;;;;;4.28;0.80;;;12.90;99.90;;;;;;4996390;28;20077;-65
2021/05/14 07:04:31;;;;;;;2.90;0.85;;;12.90;99.90;;;;;;4993803;28;20746;-65
2021/05/14 07:06:58;;;;;;;2.72;0.98;;;13.00;99.90;;;;;;4992765;28;20747;-65
2021/05/14 07:09:24;;;;;;;3.47;0.70;;;13.00;99.90;;;;;;4996380;28;20072;-64
2021/05/14 07:11:50;;;;;;;;;;;13.10;99.90;;;;;;4996267;28;20084;-64
2021/05/14 07:14:17;;;;;;;2.55;1.13;;;13.20;99.90;;;;;;4993004;28;20377;-64
2021/05/14 07:16:44;;;;;;;;;;;13.40;99.90;;;;;;4998752;28;20088;-63
2021/05/14 07:19:13;;;;;;;1.65;0.95;;;13.30;99.90;;;;;;4997395;28;19925;-64
2021/05/14 07:21:40;;;;;;;1.77;0.98;;;13.20;99.90;;;;;;4999235;28;20120;-64
2021/05/14 07:24:08;;;;;;;2.47;1.20;;;13.20;99.90;;;;;;5001353;28;20392;-64
2021/05/14 07:26:35;;;;;;;1.83;1.00;;;13.40;99.90;;;;;;4997515;28;20059;-63
2021/05/14 07:29:03;;;;;;;2.00;1.00;;;13.50;99.90;;;;;;4996965;28;20049;-64
2021/05/14 07:31:30;;;;;;;0.98;0.75;;;13.60;99.90;;;;;;4996739;28;20068;-63
2021/05/14 07:33:57;;;;;;;2.28;0.85;;;13.70;99.90;;;;;;4993043;28;20136;-63
2021/05/14 07:36:25;;;;;;;5.68;1.20;;;13.90;99.90;;;;;;4994028;28;20085;-63
2021/05/14 07:38:51;;;;;;;5.22;1.00;;;14.10;99.90;;;;;;4991547;28;20050;-64
2021/05/14 07:41:18;;;;;;;5.88;1.30;;;14.30;99.90;;;;;;4992684;28;20836;-63
2021/05/14 07:43:44;;;;;;;2.60;1.20;;;14.50;99.90;;;;;;4995373;28;20525;-63
2021/05/14 07:46:11;;;;;;;5.13;1.13;;;14.70;99.90;;;;;;4996882;28;20081;-63
2021/05/14 07:48:38;;;;;;;2.15;1.02;;;14.70;99.90;;;;;;4994219;28;20052;-64
2021/05/14 07:51:05;;;;;;;3.13;0.98;;;15.10;99.90;;;;;;4995624;28;20045;-64
2021/05/14 07:53:32;;;;;;;2.72;1.13;;;15.30;99.90;;;;;;4990693;28;20060;-64
2021/05/14 07:55:58;;;;;;;1.95;1.20;;;15.40;99.90;;;;;;4991103;28;20061;-63
2021/05/14 07:58:25;;;;;;;1.50;0.80;;;15.50;99.90;;;;;;4990326;28;20084;-64
2021/05/14 08:00:51;;;;;;;3.53;1.25;;;15.40;99.90;;;;;;4992100;28;20046;-64
2021/05/14 08:03:18;;;;;;;4.35;1.30;;;15.50;99.90;;;;;;4985281;28;20484;-64
2021/05/14 08:05:47;;;;;;;1.83;1.00;;;15.70;99.90;;;;;;4987205;28;20071;-63
2021/05/14 08:08:17;;;;;;;2.33;1.08;;;15.70;99.90;;;;;;4986597;28;20824;-64
2021/05/14 08:10:44;;;;;;;4.63;1.40;;;16.00;99.90;;;;;;4986288;28;20046;-64
2021/05/14 08:13:11;;;;;;;2.50;1.08;;;16.20;99.90;;;;;;4984102;28;20072;-64
2021/05/14 08:15:38;;;;;;;3.33;1.25;;;16.50;99.90;;;;;;4986653;28;20056;-64
2021/05/14 08:18:06;;;;;;;2.08;1.10;;;16.70;99.90;;;;;;4982900;28;20411;-64
2021/05/14 08:20:33;;;;;;;3.28;1.20;;;16.90;99.90;;;;;;4984955;28;20142;-64
2021/05/14 08:23:00;;;;;;;1.88;1.17;;;17.10;99.90;;;;;;4987038;28;20046;-64
2021/05/14 08:25:27;;;;;;;4.38;1.73;;;17.20;99.90;;;;;;4989144;28;20462;-64
2021/05/14 08:27:53;;;;;;;4.82;1.30;;;17.30;99.90;;;;;;4992244;28;21007;-64
2021/05/14 08:30:20;;;;;;;4.28;1.33;;;17.60;99.90;;;;;;4989355;28;20467;-64
2021/05/14 08:32:47;;;;;;;2.25;1.08;;;18.00;99.90;;;;;;4984373;28;20099;-65
2021/05/14 08:35:13;;;;;;;3.55;1.33;;;18.30;99.90;;;;;;4992537;28;20572;-66
2021/05/14 08:37:41;;;;;;;3.33;1.17;;;18.20;99.90;;;;;;4991082;28;20046;-66
2021/05/14 08:40:09;;;;;;;1.33;0.77;;;18.40;99.90;;;;;;4991556;28;20074;-67
2021/05/14 08:42:39;;;;;;;2.67;0.85;;;18.80;99.90;;;;;;4990141;28;20092;-67
2021/05/14 08:45:10;;;;;;;3.10;1.30;;;19.20;99.90;;;;;;4990022;28;20057;-69
2021/05/14 08:47:37;;;;;;;4.55;1.48;;;19.40;99.90;;;;;;4989833;28;20376;-67
2021/05/14 08:50:06;;;;;;;5.40;1.50;;;20.30;99.90;;;;;;4989269;28;20128;-65
2021/05/14 08:52:34;;;;;;;3.42;1.15;;;20.60;99.90;;;;;;4988900;28;20061;-67
2021/05/14 08:55:02;;;;;;;2.25;1.02;;;21.60;99.90;;;;;;4988017;28;20061;-66
2021/05/14 08:57:29;;;;;;;2.28;1.20;;;21.80;99.90;;;;;;4988284;28;20160;-66
2021/05/14 08:59:57;;;;;;;3.13;1.35;;;20.90;99.90;;;;;;4987906;28;20045;-68
2021/05/14 09:02:23;;;;;;;3.78;1.25;;;20.10;99.90;;;;;;4989091;28;20056;-66
2021/05/14 09:04:50;;;;;;;2.92;1.30;;;19.40;99.90;;;;;;4991657;28;20069;-69
2021/05/14 09:07:19;;;;;;;2.90;1.10;;;19.20;99.90;;;;;;4988926;28;21120;-67
2021/05/14 09:10:04;;;;;;;4.75;1.40;;;19.00;99.90;;;;;;4991210;28;20305;-67
2021/05/14 09:12:35;;;;;;;2.10;1.20;;;18.80;99.90;;;;;;4989786;28;20046;-67
2021/05/14 09:15:23;;;;;;;3.83;1.50;;;18.60;99.90;;;;;;4990203;28;20057;-67
2021/05/14 09:18:06;;;;;;;2.83;0.98;;;18.20;99.90;;;;;;4987594;28;20728;-67
2021/05/14 09:20:34;;;;;;;2.75;0.70;;;19.20;99.90;;;;;;4987071;28;20049;-68
2021/05/14 09:23:02;;;;;;;2.88;0.85;;;20.60;99.90;;;;;;4989560;28;20053;-68
2021/05/14 09:25:29;;;;;;;3.40;1.13;;;21.10;99.90;;;;;;4985858;28;20046;-66
2021/05/14 09:27:55;;;;;;;2.72;1.00;;;20.70;99.90;;;;;;4983376;28;20530;-66
2021/05/14 09:30:23;;;;;;;4.00;1.20;;;20.50;99.90;;;;;;4987602;28;20060;-66
2021/05/14 09:32:50;;;;;;;3.65;1.00;;;20.00;99.90;;;;;;4985193;28;20056;-66
2021/05/14 09:35:16;;;;;;;1.67;0.80;;;19.60;99.90;;;;;;4983292;28;20073;-66
2021/05/14 09:37:48;;;;;;;5.28;0.90;;;19.30;99.90;;;;;;4984175;28;20426;-66
2021/05/14 09:40:17;;;;;;;5.53;1.05;;;20.00;99.90;;;;;;4983543;28;20159;-66
2021/05/14 09:42:44;;;;;;;3.03;0.88;;;19.90;99.90;;;;;;4985698;28;20053;-66
2021/05/14 09:45:19;;;;;;;2.40;0.73;;;20.10;99.90;;;;;;4985889;28;20107;-65
2021/05/14 09:47:59;;;;;;;2.00;0.90;;;20.30;99.90;;;;;;4980183;28;20521;-64
2021/05/14 09:50:30;;;;;;;2.33;1.20;;;21.50;99.90;;;;;;4983533;28;20057;-65
2021/05/14 09:53:08;;;;;;;3.97;1.25;;;21.10;99.90;;;;;;4984475;28;20137;-65
2021/05/14 09:55:40;;;;;;;4.82;0.65;;;20.50;99.90;;;;;;4974515;28;20249;-68
2021/05/14 09:58:16;;;;;;;1.45;1.00;;;19.80;99.90;;;;;;4982852;28;20053;-67
2021/05/14 10:00:43;;;;;;;2.33;0.90;;;19.50;99.90;;;;;;4981751;28;20045;-68
2021/05/14 10:03:11;;;;;;;1.52;0.80;;;18.60;99.90;;;;;;4985694;28;20702;-68
2021/05/14 10:05:39;;;;;;;2.85;0.82;;;17.70;99.90;;;;;;4985434;28;20069;-68
2021/05/14 10:08:06;;;;;;;2.63;1.17;;;17.50;99.90;;;;;;4984821;28;20049;-66
2021/05/14 10:10:34;;;;;;;4.60;1.23;;;19.00;99.90;;;;;;4986251;28;20081;-68
2021/05/14 10:13:02;;;;;;;2.63;0.85;;;20.20;99.90;;;;;;4984554;28;20422;-69
2021/05/14 10:15:29;;;;;;;4.32;1.60;;;20.40;99.90;;;;;;4986951;28;20057;-67
2021/05/14 10:17:56;;;;;;;3.65;1.08;;;19.30;99.90;;;;;;4984691;28;20103;-68
2021/05/14 10:20:28;;;;;;;4.50;1.05;;;19.50;99.90;;;;;;4985618;28;20104;-67
2021/05/14 10:22:56;;;;;;;2.35;0.82;;;21.10;99.90;;;;;;4984239;28;20072;-66
2021/05/14 10:25:44;;;;;;;1.17;0.75;;;21.70;99.90;;;;;;4985268;28;20049;-68
2021/05/14 10:28:12;;;;;;;4.40;1.17;;;20.90;99.90;;;;;;4993334;28;20068;-65
2021/05/14 10:31:15;;;;;;;8.30;2.00;;;20.30;99.90;;;;;;4991325;28;20089;-67
2021/05/14 10:33:42;;;;;;;3.22;0.80;;;20.60;99.90;;;;;;4985645;28;20111;-66
2021/05/14 10:36:32;;;;;;;1.40;0.70;;;20.20;99.90;;;;;;4988471;28;20082;-66
2021/05/14 10:39:03;;;;;;;2.20;0.65;;;20.20;99.90;;;;;;4987535;28;20301;-66
2021/05/14 10:41:30;;;;;;;5.78;1.15;;;19.50;99.90;;;;;;4991420;28;20077;-68
2021/05/14 10:44:04;;;;;;;1.63;0.60;;;19.60;99.90;;;;;;4990697;28;20050;-67
2021/05/14 10:46:32;;;;;;;2.30;1.25;;;20.90;99.90;;;;;;4990768;28;20107;-67
2021/05/14 10:49:04;;;;;;;3.10;0.70;;;22.00;99.90;;;;;;4989817;28;20077;-67
2021/05/14 10:52:09;;;;;;;4.20;0.77;;;22.40;99.90;;;;;;4988756;28;20054;-65
2021/05/14 10:54:50;;;;;;;2.67;0.90;;;23.40;99.90;;;;;;4976442;28;20064;-67
2021/05/14 10:57:48;;;;;;;6.70;2.55;;;22.10;99.90;;;;;;4989531;28;20049;-67
2021/05/14 11:00:35;;;;;;;3.63;0.80;;;21.30;99.90;;;;;;4991029;28;20045;-68
2021/05/14 11:03:19;;;;;;;4.88;1.92;;;20.40;99.90;;;;;;4993571;28;20049;-67
2021/05/14 11:05:49;;;;;;;2.75;0.50;;;19.70;99.90;;;;;;4990651;28;20144;-68
2021/05/14 11:08:40;;;;;;;4.00;1.13;;;19.80;99.90;;;;;;4992164;28;20168;-69
2021/05/14 11:11:11;;;;;;;4.68;0.80;;;19.80;99.90;;;;;;4986144;28;20405;-68
2021/05/14 11:13:40;;;;;;;1.30;0.52;;;20.50;99.90;;;;;;4992314;28;20156;-66
2021/05/14 11:16:41;;;;;;;3.08;0.73;;;20.70;99.90;;;;;;4992096;28;20054;-66
2021/05/14 11:19:26;;;;;;;1.40;0.70;;;20.30;99.90;;;;;;4930184;28;20055;-68
2021/05/14 11:22:08;;;;;;;1.75;0.55;;;20.70;99.90;;;;;;4930956;28;20051;-67
2021/05/14 11:24:47;;;;;;;1.17;0.50;;;20.10;99.90;;;;;;4964770;28;20851;-66
2021/05/14 11:27:16;;;;;;;0.40;0.25;;;19.80;99.90;;;;;;4988967;28;20096;-67
2021/05/14 11:29:45;;;;;;;0.73;0.40;;;19.00;99.90;;;;;;4991999;28;20057;-66
2021/05/14 11:32:21;;;;;;;1.77;0.40;;;18.50;99.80;;;;;;4993658;28;20117;-66
2021/05/14 11:34:58;;;;;;;1.73;0.73;;;18.80;99.90;;;;;;4991378;28;20137;-68
2021/05/14 11:37:27;;;;;;;1.10;0.60;;;19.20;99.90;;;;;;4990745;28;20085;-67
2021/05/14 11:39:54;;;;;;;1.15;0.57;;;19.20;99.90;;;;;;4992989;28;20088;-67
2021/05/14 11:42:23;;;;;;;1.40;0.50;;;19.10;99.90;;;;;;4994282;28;20054;-66
2021/05/14 11:44:54;;;;;;;3.25;0.73;;;19.30;99.90;;;;;;4992942;28;20339;-66
2021/05/14 11:47:20;;;;;;;0.65;0.40;;;19.50;99.90;;;;;;4991088;28;20045;-67
2021/05/14 11:49:47;;;;;;;1.02;0.22;;;19.80;99.90;;;;;;4989315;28;20136;-66
2021/05/14 11:52:14;;;;;;;0.50;0.30;;;20.20;96.50;;;;;;4992936;28;20081;-67
2021/05/14 11:54:40;;;;;;;2.42;0.60;;;20.40;98.20;;;;;;4992068;28;20129;-67
2021/05/14 11:57:07;;;;;;;1.85;0.30;;;20.90;96.70;;;;;;4989848;28;20528;-67
2021/05/14 11:59:43;;;;;;;2.65;0.52;;;20.80;98.30;;;;;;4993523;28;20503;-67
2021/05/14 12:02:40;;;;;;;1.90;0.68;;;20.50;96.20;;;;;;4991380;28;20045;-68
2021/05/14 12:05:09;;;;;;;1.40;0.30;;;20.30;98.20;;;;;;4991796;28;20065;-67
2021/05/14 12:07:36;;;;;;;2.78;0.95;;;20.10;95.30;;;;;;4991956;28;20057;-67
2021/05/14 12:10:05;;;;;;;3.63;0.40;;;19.90;97.10;;;;;;4992380;28;20104;-67
2021/05/14 12:12:32;;;;;;;2.25;0.40;;;20.90;96.90;;;;;;4991285;28;20050;-68
2021/05/14 12:15:15;;;;;;;1.88;0.57;;;20.20;95.00;;;;;;4995080;28;20054;-67
2021/05/14 12:17:43;;;;;;;0.82;0.40;;;20.10;96.00;;;;;;4991341;28;20079;-67
2021/05/14 12:20:18;;;;;;;3.85;0.70;;;20.10;96.50;;;;;;4990081;28;20072;-68
2021/05/14 12:22:47;;;;;;;0.90;0.43;;;20.90;99.20;;;;;;4984720;28;20068;-68
2021/05/14 12:25:14;;;;;;;1.55;0.40;;;21.40;98.60;;;;;;4990627;28;20522;-68
2021/05/14 12:27:42;;;;;;;0.98;0.50;;;21.70;97.10;;;;;;4989691;28;20072;-69
2021/05/14 12:30:11;;;;;;;6.30;2.42;;;21.30;94.20;;;;;;4989527;28;20498;-66
2021/05/14 12:32:38;;;;;;;5.82;2.22;;;21.20;93.30;;;;;;4988936;28;20053;-66
2021/05/14 12:35:06;;;;;;;2.45;0.90;;;21.40;95.90;;;;;;4989280;28;20156;-68
2021/05/14 12:37:33;;;;;;;1.10;0.40;;;21.40;95.10;;;;;;4989578;28;20124;-69
2021/05/14 12:39:59;;;;;;;1.77;0.50;;;21.80;95.10;;;;;;4987793;28;20096;-68
2021/05/14 12:42:27;;;;;;;0.40;0.30;;;22.20;94.10;;;;;;4989576;28;20128;-66
2021/05/14 12:44:55;;;;;;;8.05;2.13;;;22.10;92.80;;;;;;4989981;28;20045;-69
2021/05/14 12:47:24;;;;;;;0.82;0.40;;;22.00;92.70;;;;;;4987081;28;20054;-69
2021/05/14 12:49:53;;;;;;;2.55;0.85;;;22.00;95.60;;;;;;4988149;28;20050;-66
2021/05/14 12:52:22;;;;;;;1.35;0.52;;;22.60;92.30;;;;;;4989028;28;20099;-67
2021/05/14 12:54:54;;;;;;;2.20;0.50;;;22.80;92.50;;;;;;4985780;28;20073;-67
2021/05/14 12:57:26;;;;;;;1.73;0.60;;;22.60;93.20;;;;;;4986889;28;20107;-67
2021/05/14 12:59:53;;;;;;;2.63;0.60;;;22.90;92.60;;;;;;4987180;28;20811;-67
2021/05/14 13:02:22;;;;;;;1.13;0.50;;;22.10;90.20;;;;;;4984650;28;20079;-69
2021/05/14 13:05:00;;;;;;;1.95;1.02;;;22.00;89.60;;;;;;4987032;28;20089;-68
2021/05/14 13:07:27;;;;;;;1.55;0.50;;;21.70;91.30;;;;;;4985290;28;20085;-68